Airfield :
LOGIN :

Register | Disclaimer

   EN    FR    IT 

 










Legend :    VFR   Marginal VFR   IFR   Intensive IFR   Very Intensive IFR
Visi :
Ceiling :
>= 8 km
>= 3000ft
5 to 8 km
1000 to 3000 ft
1500m to 5 km
500 to 1000 ft
800 to 1500m
200 to 500 ft
< 800m
< 200 ft
Symbols :   Thunderstorms  Fog  Heavy snow  Heavy precipitations  Wind > 20 kt
SIGMETs :     Misc.  Thunderstorms  Icing  Turbulence  Mountain Waves  Volcanic Ashes







- Airport Elevation : 15 ft
- IATA code : FCO


LIRF - Roma Leonardo da Vinci Fiumicino

CURRENT METAR :
  • 212250Z 10005KT 9999 SCT055 21/15 Q1020 NOSIG

EXPIRED METARs :
  • 212220Z 10005KT 080V140 CAVOK 20/15 Q1020 NOSIG
  • 212150Z 08004KT CAVOK 20/16 Q1020 NOSIG
  • 212120Z 11003KT 060V160 CAVOK 20/16 Q1020 NOSIG
  • 212050Z 14005KT 110V190 CAVOK 21/16 Q1020 NOSIG
  • 212020Z 10006KT CAVOK 22/16 Q1020 NOSIG

TAF TAF LIRF
Valid from the 21 at 18:00 until the 23 at 00:00 UTC


211700Z 2118/2224 17014KT 9999 SCT030
TEMPO 2201/2205 SHRA
TEMPO 2205/2218 TSRA
TEMPO 2211/2218 16018G28KT
No reported NOTAMs for that airfield.



MET'MAP, your aeronautical weather chart ! - Copyright ORBIFLY December 2007 - Disclaimer

ORBIFLY MET'MAP TEAM :

Programming & Development : Alexandra Zaïnal
Concept & Development : Baudouin d'Aumeries
Co-Development & Prog : Marc-Olivier Méhu
Technical & hardware support : Manuel Goepfert

Contact : metmap@orbifly.com




SOURCES & CREDITS :

   NOAA